Time;durP1;ratioP1;P1;durP2;ratioP2;P2;SDS_P1;SDS_P2;PMS_P1;PMS_P2;Temp;Humidity;BMP_temperature;BMP_pressure;BME280_temperature;BME280_humidity;BME280_pressure;Samples;Min_cycle;Max_cycle;Signal;HPM_P1;HPM_P2
2023/09/29 00:01:11;;;;;;;;;;;;;;;;;;6277607;22;19904;-95
2023/09/29 00:03:37;;;;;;;;;;;;;;;;;;6273663;22;19907;-94
2023/09/29 00:06:09;;;;;;;;;;;;;;;;;;6277527;22;20325;-95
2023/09/29 00:08:35;;;;;;;;;;;;;;;;;;6277724;22;19903;-96
2023/09/29 00:11:08;;;;;;;;;;;;;;;;;;6277798;22;19935;-93
2023/09/29 00:13:41;;;;;;;;;;;;;;;;;;6277614;22;20343;-93
2023/09/29 00:16:07;;;;;;;;;;;;;;;;;;6277961;22;19940;-94
2023/09/29 00:18:37;;;;;;;;;;;;;;;;;;6269047;22;19903;-96
2023/09/29 00:21:03;;;;;;;;;;;;;;;;;;6277418;22;19953;-95
2023/09/29 00:23:32;;;;;;;;;;;;;;;;;;6278305;22;19934;-93
2023/09/29 00:25:58;;;;;;;;;;;;;;;;;;6278055;22;19932;-93
2023/09/29 00:28:27;;;;;;;;;;;;;;;;;;6277926;22;19907;-94
2023/09/29 00:30:53;;;;;;;;;;;;;;;;;;6277351;22;19910;-94
2023/09/29 00:33:20;;;;;;;;;;;;;;;;;;6277963;22;19909;-94
2023/09/29 00:35:46;;;;;;;;;;;;;;;;;;6245995;23;19911;-95
2023/09/29 00:38:15;;;;;;;;;;;;;;;;;;6217235;23;19966;-93
2023/09/29 00:40:41;;;;;;;;;;;;;;;;;;6215595;23;19939;-95
2023/09/29 00:43:15;;;;;;;;;;;;;;;;;;6191366;23;19904;-93
2023/09/29 00:45:44;;;;;;;;;;;;;;;;;;6189719;23;19949;-93
2023/09/29 00:50:54;;;;;;;;;;;;;;;;;;6216123;23;19910;-95
2023/09/29 00:55:55;;;;;;;;;;;;;;;;;;6309897;22;19925;-94
2023/09/29 00:58:24;;;;;;;;;;;;;;;;;;6303006;22;19899;-95
2023/09/29 01:00:52;;;;;;;;;;;;;;;;;;6297713;22;19971;-96
2023/09/29 01:03:21;;;;;;;;;;;;;;;;;;6309421;22;19925;-95
2023/09/29 01:05:54;;;;;;;;;;;;;;;;;;6282392;22;19903;-95
2023/09/29 01:08:20;;;;;;;;;;;;;;;;;;6282247;22;19899;-94
2023/09/29 01:10:49;;;;;;;;;;;;;;;;;;6282266;22;20375;-96
2023/09/29 01:13:15;;;;;;;;;;;;;;;;;;6282164;22;19938;-95
2023/09/29 01:15:51;;;;;;;;;;;;;;;;;;;;;
2023/09/29 01:18:17;;;;;;;;;;;;;;;;;;6314319;22;19941;-95
2023/09/29 01:20:43;;;;;;;;;;;;;;;;;;6282712;22;19903;-96
2023/09/29 01:23:16;;;;;;;;;;;;;;;;;;6282320;22;19903;-96
2023/09/29 01:25:48;;;;;;;;;;;;;;;;;;6282018;22;19981;-96
2023/09/29 01:28:17;;;;;;;;;;;;;;;;;;6281957;22;19903;-94
2023/09/29 01:30:47;;;;;;;;;;;;;;;;;;6282071;22;20213;-95
2023/09/29 01:33:16;;;;;;;;;;;;;;;;;;6278012;22;19903;-96
2023/09/29 01:35:49;;;;;;;;;;;;;;;;;;6281817;22;19915;-94
2023/09/29 01:38:15;;;;;;;;;;;;;;;;;;6282048;22;19903;-95
2023/09/29 01:40:41;;;;;;;;;;;;;;;;;;6282388;22;19903;-96
2023/09/29 01:43:10;;;;;;;;;;;;;;;;;;6282058;22;19910;-95
2023/09/29 01:45:42;;;;;;;;;;;;;;;;;;6277748;22;19910;-95
2023/09/29 01:48:12;;;;;;;;;;;;;;;;;;6282367;22;19907;-95
2023/09/29 01:50:42;;;;;;;;;;;;;;;;;;6282330;22;19938;-95
2023/09/29 01:53:14;;;;;;;;;;;;;;;;;;6279477;22;19907;-95
2023/09/29 01:55:46;;;;;;;;;;;;;;;;;;6299754;22;19914;-94
2023/09/29 01:58:12;;;;;;;;;;;;;;;;;;6307812;22;19899;-94
2023/09/29 02:00:41;;;;;;;;;;;;;;;;;;6286103;22;19913;-95
2023/09/29 02:03:07;;;;;;;;;;;;;;;;;;6285046;22;19973;-95
2023/09/29 02:05:36;;;;;;;;;;;;;;;;;;6273581;22;19902;-95
2023/09/29 02:08:06;;;;;;;;;;;;;;;;;;6281859;22;19903;-94
2023/09/29 02:10:35;;;;;;;;;;;;;;;;;;6274018;22;20308;-94
2023/09/29 02:13:04;;;;;;;;;;;;;;;;;;6281874;22;19937;-94
2023/09/29 02:15:48;;;;;;;;;;;;;;;;;;6272900;22;20210;-95
2023/09/29 02:18:18;;;;;;;;;;;;;;;;;;6281913;22;19903;-94
2023/09/29 02:20:47;;;;;;;;;;;;;;;;;;6245204;23;19903;-94
2023/09/29 02:23:16;;;;;;;;;;;;;;;;;;6245640;23;19904;-94
2023/09/29 02:25:42;;;;;;;;;;;;;;;;;;6247698;23;20245;-95
2023/09/29 02:28:19;;;;;;;;;;;;;;;;;;6247332;23;19907;-93
2023/09/29 02:36:15;;;;;;;;;;;;;;;;;;6247583;23;19914;-94
2023/09/29 02:38:41;;;;;;;;;;;;;;;;;;6248038;23;19903;-95
2023/09/29 02:41:07;;;;;;;;;;;;;;;;;;6248063;23;20357;-95
2023/09/29 02:43:33;;;;;;;;;;;;;;;;;;6247220;23;19936;-94
2023/09/29 02:46:03;;;;;;;;;;;;;;;;;;6246459;23;19904;-94
2023/09/29 02:48:38;;;;;;;;;;;;;;;;;;6247003;23;19914;-95
2023/09/29 02:51:06;;;;;;;;;;;;;;;;;;6247071;23;19911;-94
2023/09/29 02:53:33;;;;;;;;;;;;;;;;;;6246853;23;19970;-94
2023/09/29 02:56:03;;;;;;;;;;;;;;;;;;6246520;22;19916;-93
2023/09/29 03:01:19;;;;;;;;;;;;;;;;;;6296388;22;19928;-95
2023/09/29 03:03:45;;;;;;;;;;;;;;;;;;6315574;22;19903;-96
2023/09/29 03:06:23;;;;;;;;;;;;;;;;;;6277965;22;19903;-95
2023/09/29 03:08:59;;;;;;;;;;;;;;;;;;6281112;22;19943;-96
2023/09/29 03:11:28;;;;;;;;;;;;;;;;;;6292987;22;19984;-94
2023/09/29 03:16:38;;;;;;;;;;;;;;;;;;6278357;22;19914;-95
2023/09/29 03:19:04;;;;;;;;;;;;;;;;;;6251905;22;19903;-94
2023/09/29 03:21:30;;;;;;;;;;;;;;;;;;6277954;22;19904;-95
2023/09/29 03:23:59;;;;;;;;;;;;;;;;;;6251725;22;19933;-94
2023/09/29 03:26:31;;;;;;;;;;;;;;;;;;6253350;22;20002;-95
2023/09/29 03:29:03;;;;;;;;;;;;;;;;;;6281232;22;19945;-96
2023/09/29 03:31:29;;;;;;;;;;;;;;;;;;6280225;22;19903;-95
2023/09/29 03:34:01;;;;;;;;;;;;;;;;;;6283493;22;20313;-94
2023/09/29 03:36:30;;;;;;;;;;;;;;;;;;6289798;22;19903;-95
2023/09/29 03:39:05;;;;;;;;;;;;;;;;;;6314764;22;19956;-96
2023/09/29 03:41:40;;;;;;;;;;;;;;;;;;6313520;22;20029;-94
2023/09/29 03:44:12;;;;;;;;;;;;;;;;;;6314443;22;19940;-95
2023/09/29 03:46:42;;;;;;;;;;;;;;;;;;6314421;22;19942;-96
2023/09/29 03:49:11;;;;;;;;;;;;;;;;;;6314543;22;19934;-94
2023/09/29 03:51:40;;;;;;;;;;;;;;;;;;6314494;22;19903;-95
2023/09/29 03:54:07;;;;;;;;;;;;;;;;;;6314816;22;20316;-95
2023/09/29 03:56:36;;;;;;;;;;;;;;;;;;6246625;23;19915;-95
2023/09/29 03:59:08;;;;;;;;;;;;;;;;;;6247565;23;19907;-96
2023/09/29 04:04:12;;;;;;;;;;;;;;;;;;6365919;22;19902;-95
2023/09/29 04:06:41;;;;;;;;;;;;;;;;;;6335011;22;19918;-93
2023/09/29 04:09:11;;;;;;;;;;;;;;;;;;6321421;22;19927;-95
2023/09/29 04:11:40;;;;;;;;;;;;;;;;;;6314127;22;19949;-94
2023/09/29 04:14:09;;;;;;;;;;;;;;;;;;6313989;22;19960;-94
2023/09/29 04:19:27;;;;;;;;;;;;;;;;;;6283891;22;20327;-95
2023/09/29 04:21:53;;;;;;;;;;;;;;;;;;6314212;22;19903;-93
2023/09/29 04:24:29;;;;;;;;;;;;;;;;;;6313610;22;19958;-95
2023/09/29 04:27:17;;;;;;;;;;;;;;;;;;;;;
2023/09/29 04:29:43;;;;;;;;;;;;;;;;;;6341725;22;19987;-93
2023/09/29 04:32:12;;;;;;;;;;;;;;;;;;6313723;22;19910;-94
2023/09/29 04:34:48;;;;;;;;;;;;;;;;;;;;;
2023/09/29 04:37:14;;;;;;;;;;;;;;;;;;6340996;22;19978;-93
2023/09/29 04:45:30;;;;;;;;;;;;;;;;;;6245815;22;19902;-96
2023/09/29 04:48:05;;;;;;;;;;;;;;;;;;6312898;22;19977;-94
2023/09/29 04:50:34;;;;;;;;;;;;;;;;;;6313413;22;20278;-95
2023/09/29 04:53:06;;;;;;;;;;;;;;;;;;6310184;22;19903;-93
2023/09/29 04:55:32;;;;;;;;;;;;;;;;;;6313779;22;19930;-94
2023/09/29 04:57:58;;;;;;;;;;;;;;;;;;6313210;22;19910;-94
2023/09/29 05:00:30;;;;;;;;;;;;;;;;;;6313661;22;19960;-94
2023/09/29 05:02:56;;;;;;;;;;;;;;;;;;6309100;22;19942;-95
2023/09/29 05:08:09;;;;;;;;;;;;;;;;;;6282783;22;19915;-95
2023/09/29 05:10:43;;;;;;;;;;;;;;;;;;6282094;22;20386;-95
2023/09/29 05:13:09;;;;;;;;;;;;;;;;;;6279171;22;19894;-94
2023/09/29 05:18:23;;;;;;;;;;;;;;;;;;6254209;23;19914;-94
2023/09/29 05:20:51;;;;;;;;;;;;;;;;;;6220844;23;19931;-94
2023/09/29 05:23:29;;;;;;;;;;;;;;;;;;6223180;23;19904;-94
2023/09/29 05:25:58;;;;;;;;;;;;;;;;;;6221962;23;19903;-92
2023/09/29 05:31:28;;;;;;;;;;;;;;;;;;6206528;23;19904;-94
2023/09/29 05:33:55;;;;;;;;;;;;;;;;;;6220217;23;20272;-93
2023/09/29 05:36:23;;;;;;;;;;;;;;;;;;6235008;22;19907;-93
2023/09/29 05:38:50;;;;;;;;;;;;;;;;;;6273957;22;20318;-91
2023/09/29 05:44:02;;;;;;;;;;;;;;;;;;6274246;22;19934;-93
2023/09/29 05:46:34;;;;;;;;;;;;;;;;;;6304683;22;19903;-93
2023/09/29 05:49:00;;;;;;;;;;;;;;;;;;6309949;22;19945;-93
2023/09/29 05:51:26;;;;;;;;;;;;;;;;;;6309122;22;19980;-92
2023/09/29 05:53:52;;;;;;;;;;;;;;;;;;6307865;22;19978;-92
2023/09/29 05:56:20;;;;;;;;;;;;;;;;;;6307621;22;20354;-93
2023/09/29 05:58:56;;;;;;;;;;;;;;;;;;;;;
2023/09/29 06:01:25;;;;;;;;;;;;;;;;;;6311204;22;19986;-95
2023/09/29 06:06:39;;;;;;;;;;;;;;;;;;6310936;22;19909;-93
2023/09/29 06:09:14;;;;;;;;;;;;;;;;;;6309586;22;19910;-94
2023/09/29 06:11:40;;;;;;;;;;;;;;;;;;6309591;22;19907;-93
2023/09/29 06:14:06;;;;;;;;;;;;;;;;;;6309881;22;20405;-94
2023/09/29 06:19:21;;;;;;;;;;;;;;;;;;6298921;22;20327;-96
2023/09/29 06:21:50;;;;;;;;;;;;;;;;;;6309645;22;19949;-93
2023/09/29 06:27:01;;;;;;;;;;;;;;;;;;6310978;22;19909;-93
2023/09/29 06:29:33;;;;;;;;;;;;;;;;;;6309655;22;19973;-92
2023/09/29 06:31:59;;;;;;;;;;;;;;;;;;6309766;22;20312;-93
2023/09/29 14:04:21;;;;;;;;;;;;;;;;;;6314626;22;19958;-95
2023/09/29 14:06:47;;;;;;;;;;;;;;;;;;6245446;23;19904;-91
2023/09/29 14:09:13;;;;;;;;;;;;;;;;;;6245998;23;19904;-92
2023/09/29 14:30:43;;;;;;;;;;;;;;;;;;6281968;22;19974;-93
2023/09/29 14:35:44;;;;;;;;;;;;;;;;;;6274449;22;19926;-95
2023/09/29 14:51:33;;;;;;;;;;;;;;;;;;6271827;22;19941;-92
2023/09/29 14:53:59;;;;;;;;;;;;;;;;;;6278566;22;19907;-92
2023/09/29 14:56:33;;;;;;;;;;;;;;;;;;6281665;22;19989;-94
2023/09/29 14:58:59;;;;;;;;;;;;;;;;;;6279939;22;19907;-94
2023/09/29 15:01:26;;;;;;;;;;;;;;;;;;6277017;22;20333;-93
2023/09/29 15:04:01;;;;;;;;;;;;;;;;;;6267569;22;19922;-91
2023/09/29 15:06:33;;;;;;;;;;;;;;;;;;6314352;22;19903;-93
2023/09/29 15:09:00;;;;;;;;;;;;;;;;;;6313700;22;19914;-91
2023/09/29 15:11:26;;;;;;;;;;;;;;;;;;6306279;22;19922;-91
2023/09/29 15:13:52;;;;;;;;;;;;;;;;;;6283953;22;19899;-89
2023/09/29 15:18:54;;;;;;;;;;;;;;;;;;6297205;22;19990;-91
2023/09/29 15:21:20;;;;;;;;;;;;;;;;;;6286683;22;19928;-91
2023/09/29 15:23:53;;;;;;;;;;;;;;;;;;6258838;22;19924;-90
2023/09/29 15:26:19;;;;;;;;;;;;;;;;;;6261269;22;19919;-92
2023/09/29 15:28:45;;;;;;;;;;;;;;;;;;6243228;22;20151;-90
2023/09/29 15:31:11;;;;;;;;;;;;;;;;;;6265294;22;20002;-91
2023/09/29 15:33:37;;;;;;;;;;;;;;;;;;6267649;22;19923;-90
2023/09/29 15:36:03;;;;;;;;;;;;;;;;;;6263030;22;19919;-90
2023/09/29 15:38:36;;;;;;;;;;;;;;;;;;6280494;22;19926;-90
2023/09/29 15:41:02;;;;;;;;;;;;;;;;;;6289306;22;19943;-91
2023/09/29 15:46:10;;;;;;;;;;;;;;;;;;6295120;22;19971;-90
2023/09/29 15:48:39;;;;;;;;;;;;;;;;;;6296284;22;19898;-96
2023/09/29 15:53:55;;;;;;;;;;;;;;;;;;6249548;22;19994;-94
2023/09/29 15:56:21;;;;;;;;;;;;;;;;;;6252990;22;19923;-95
2023/09/29 16:01:32;;;;;;;;;;;;;;;;;;6278424;22;19926;-94
2023/09/29 16:06:38;;;;;;;;;;;;;;;;;;6280213;22;19925;-93
2023/09/29 16:11:52;;;;;;;;;;;;;;;;;;6315795;22;19909;-95
2023/09/29 16:14:21;;;;;;;;;;;;;;;;;;6310012;22;19895;-93
2023/09/29 16:16:50;;;;;;;;;;;;;;;;;;6307927;22;19989;-95
2023/09/29 16:19:22;;;;;;;;;;;;;;;;;;6273635;22;20397;-93
2023/09/29 16:21:51;;;;;;;;;;;;;;;;;;6238293;22;19986;-96
2023/09/29 16:24:21;;;;;;;;;;;;;;;;;;6246502;23;19907;-96
2023/09/29 16:29:32;;;;;;;;;;;;;;;;;;6249412;23;19911;-94
2023/09/29 16:32:01;;;;;;;;;;;;;;;;;;6251863;23;19911;-96
2023/09/29 16:37:06;;;;;;;;;;;;;;;;;;6310059;22;19925;-96
2023/09/29 16:42:11;;;;;;;;;;;;;;;;;;6291324;22;20395;-95
2023/09/29 16:44:44;;;;;;;;;;;;;;;;;;6259217;22;19931;-96
2023/09/29 16:49:47;;;;;;;;;;;;;;;;;;6262342;22;20006;-94
2023/09/29 16:52:16;;;;;;;;;;;;;;;;;;6242285;22;19939;-95
2023/09/29 16:57:30;;;;;;;;;;;;;;;;;;6258429;22;19926;-95
2023/09/29 17:31:14;;;;;;;;;;;;;;;;;;6349133;22;19918;-95
2023/09/29 17:33:45;;;;;;;;;;;;;;;;;;6354279;22;19902;-95
2023/09/29 17:41:54;;;;;;;;;;;;;;;;;;6310544;22;19910;-95
2023/09/29 18:03:23;;;;;;;;;;;;;;;;;;6296831;22;20227;-94
2023/09/29 18:11:32;;;;;;;;;;;;;;;;;;6211772;22;19907;-94
2023/09/29 18:16:30;;;;;;;;;;;;;;;;;;6291496;22;19941;-93
2023/09/29 18:29:46;;;;;;;;;;;;;;;;;;6287739;22;19919;-94
2023/09/29 18:35:06;;;;;;;;;;;;;;;;;;6259096;23;19964;-93
2023/09/29 18:37:32;;;;;;;;;;;;;;;;;;6264349;23;19888;-94
2023/09/29 18:39:58;;;;;;;;;;;;;;;;;;6264049;22;19930;-93
2023/09/29 18:45:45;;;;;;;;;;;;;;;;;;6264199;22;19922;-94
2023/09/29 18:50:56;;;;;;;;;;;;;;;;;;6260698;23;19904;-96
2023/09/29 18:53:25;;;;;;;;;;;;;;;;;;6234842;23;19914;-96
2023/09/29 18:55:51;;;;;;;;;;;;;;;;;;6203547;23;19912;-95
2023/09/29 18:58:19;;;;;;;;;;;;;;;;;;6198524;23;20223;-96
2023/09/29 19:00:45;;;;;;;;;;;;;;;;;;6197909;23;20229;-96
2023/09/29 19:03:14;;;;;;;;;;;;;;;;;;6213643;23;19915;-96
2023/09/29 19:08:13;;;;;;;;;;;;;;;;;;6286127;22;19920;-94
2023/09/29 19:10:42;;;;;;;;;;;;;;;;;;6286791;22;19903;-96
2023/09/29 19:13:08;;;;;;;;;;;;;;;;;;6274077;22;19903;-95
2023/09/29 19:21:05;;;;;;;;;;;;;;;;;;6331916;22;19993;-96
2023/09/29 19:29:02;;;;;;;;;;;;;;;;;;6226235;23;19911;-95
2023/09/29 19:31:38;;;;;;;;;;;;;;;;;;;;;
2023/09/29 19:39:45;;;;;;;;;;;;;;;;;;6204567;22;19904;-96
2023/09/29 19:42:14;;;;;;;;;;;;;;;;;;6167414;23;19912;-96
2023/09/29 19:44:46;;;;;;;;;;;;;;;;;;6170643;23;19884;-95
2023/09/29 19:47:15;;;;;;;;;;;;;;;;;;6160556;23;19905;-96
2023/09/29 19:50:07;;;;;;;;;;;;;;;;;;6138961;23;19907;-95
2023/09/29 19:52:36;;;;;;;;;;;;;;;;;;6167052;23;20032;-95
2023/09/29 20:16:31;;;;;;;;;;;;;;;;;;6325512;22;19941;-95
2023/09/29 20:22:11;;;;;;;;;;;;;;;;;;6220232;23;19904;-96
2023/09/29 20:24:46;;;;;;;;;;;;;;;;;;;;;
2023/09/29 20:27:22;;;;;;;;;;;;;;;;;;6223824;23;19935;-96
2023/09/29 20:41:09;;;;;;;;;;;;;;;;;;6162179;23;19940;-96
2023/09/29 20:43:36;;;;;;;;;;;;;;;;;;6117354;23;19964;-95
2023/09/29 20:48:40;;;;;;;;;;;;;;;;;;6293652;22;19919;-96
2023/09/29 20:56:51;;;;;;;;;;;;;;;;;;6274583;22;19916;-95
2023/09/29 20:59:23;;;;;;;;;;;;;;;;;;6280370;22;20379;-95
2023/09/29 21:01:55;;;;;;;;;;;;;;;;;;6275620;22;19919;-96
2023/09/29 21:07:34;;;;;;;;;;;;;;;;;;6215493;23;20026;-94
2023/09/29 21:15:58;;;;;;;;;;;;;;;;;;6091481;23;19918;-96
2023/09/29 21:18:24;;;;;;;;;;;;;;;;;;6190898;23;19908;-96
2023/09/29 21:20:50;;;;;;;;;;;;;;;;;;6165095;23;19932;-95
2023/09/29 21:23:34;;;;;;;;;;;;;;;;;;6242768;22;19944;-95
2023/09/29 21:26:00;;;;;;;;;;;;;;;;;;6282074;22;19942;-96
2023/09/29 21:28:26;;;;;;;;;;;;;;;;;;6281254;22;19941;-95
2023/09/29 21:36:25;;;;;;;;;;;;;;;;;;6280573;22;19995;-96
2023/09/29 21:38:52;;;;;;;;;;;;;;;;;;6252508;22;19903;-96
2023/09/29 21:41:24;;;;;;;;;;;;;;;;;;6271950;22;19919;-96
2023/09/29 21:44:05;;;;;;;;;;;;;;;;;;;;;
2023/09/29 21:46:40;;;;;;;;;;;;;;;;;;6315932;22;19919;-96
2023/09/29 21:49:06;;;;;;;;;;;;;;;;;;6288672;22;19978;-96
2023/09/29 21:51:47;;;;;;;;;;;;;;;;;;6289939;22;19903;-96
2023/09/29 21:57:19;;;;;;;;;;;;;;;;;;6192538;23;21465;-96
2023/09/29 21:59:58;;;;;;;;;;;;;;;;;;;;;
2023/09/29 22:05:05;;;;;;;;;;;;;;;;;;6225087;22;19907;-96
2023/09/29 22:07:31;;;;;;;;;;;;;;;;;;6272764;22;19930;-96
2023/09/29 22:12:52;;;;;;;;;;;;;;;;;;6203251;22;20469;-96
2023/09/29 22:15:21;;;;;;;;;;;;;;;;;;6288971;22;20006;-96
2023/09/29 22:20:48;;;;;;;;;;;;;;;;;;;;;
2023/09/29 22:23:16;;;;;;;;;;;;;;;;;;6311810;22;19986;-96
2023/09/29 22:25:50;;;;;;;;;;;;;;;;;;6281128;22;19914;-96
2023/09/29 22:28:16;;;;;;;;;;;;;;;;;;6314649;22;19914;-96
2023/09/29 22:30:42;;;;;;;;;;;;;;;;;;6290970;22;19918;-95
2023/09/29 22:33:08;;;;;;;;;;;;;;;;;;6314052;22;19906;-95
2023/09/29 22:38:24;;;;;;;;;;;;;;;;;;6221932;22;19904;-95
2023/09/29 22:43:37;;;;;;;;;;;;;;;;;;6321052;22;19902;-96
2023/09/29 22:46:03;;;;;;;;;;;;;;;;;;6316417;22;19910;-95
2023/09/29 22:48:32;;;;;;;;;;;;;;;;;;6317704;22;19971;-94
2023/09/29 22:50:58;;;;;;;;;;;;;;;;;;6316656;22;20231;-95
2023/09/29 22:56:20;;;;;;;;;;;;;;;;;;;;;
2023/09/29 22:58:50;;;;;;;;;;;;;;;;;;6224928;22;21580;-96
2023/09/29 23:01:17;;;;;;;;;;;;;;;;;;6290714;22;19978;-96
2023/09/29 23:03:43;;;;;;;;;;;;;;;;;;6280174;22;21264;-95
2023/09/29 23:06:12;;;;;;;;;;;;;;;;;;6292240;22;19978;-96
2023/09/29 23:11:23;;;;;;;;;;;;;;;;;;6318018;22;19941;-96
2023/09/29 23:13:52;;;;;;;;;;;;;;;;;;6285265;22;19903;-94
2023/09/29 23:16:21;;;;;;;;;;;;;;;;;;6271095;22;19939;-96
2023/09/29 23:18:53;;;;;;;;;;;;;;;;;;6286150;22;19905;-95
2023/09/29 23:24:07;;;;;;;;;;;;;;;;;;6310458;22;19923;-96
2023/09/29 23:26:39;;;;;;;;;;;;;;;;;;6291616;22;19939;-96
2023/09/29 23:29:08;;;;;;;;;;;;;;;;;;6286070;22;19986;-96
2023/09/29 23:31:35;;;;;;;;;;;;;;;;;;6291825;22;20316;-96
2023/09/29 23:34:04;;;;;;;;;;;;;;;;;;6277038;22;19910;-96
2023/09/29 23:36:33;;;;;;;;;;;;;;;;;;6285875;22;19954;-96
2023/09/29 23:39:10;;;;;;;;;;;;;;;;;;6287320;22;19976;-95
2023/09/29 23:41:48;;;;;;;;;;;;;;;;;;6279296;22;19926;-96
2023/09/29 23:44:29;;;;;;;;;;;;;;;;;;6287404;22;19899;-95
2023/09/29 23:46:59;;;;;;;;;;;;;;;;;;6263237;22;19917;-95
2023/09/29 23:52:23;;;;;;;;;;;;;;;;;;6258489;22;19996;-96
2023/09/29 23:54:49;;;;;;;;;;;;;;;;;;6288222;22;19938;-96
2023/09/29 23:57:20;;;;;;;;;;;;;;;;;;6286209;22;20391;-96
2023/09/29 23:59:49;;;;;;;;;;;;;;;;;;6285855;22;20365;-95
